Terminal Aerodrome Forecast
Issued by NWS

Home | Current Version | Previous Version | Text Only | Print | Product List | Glossary On
Versions: 1 2 3 4 5 6 7 8 9 10 11 12 13 14
707
FTUS45 KPIH 010520
TAFSUN
TAF
KSUN 010520Z 0106/0206 VRB05KT P6SM VCTS SCT050CB BKN070 OVC130
     FM010800 VRB04KT P6SM -SHRA SCT040 BKN070 OVC110
     FM011400 VRB04KT P6SM VCSH SCT040 BKN100
     FM012200 25015G25KT P6SM SKC
     FM020300 32006KT P6SM SKC
      AMD LTD TO CLD VIS AND WIND TIL 011300=

USA.gov is the U.S. government's official web portal to all federal, state and local government web resources and services.